createdAt,value
2019-01-25T00:01:52.311Z,37.57
2019-01-25T00:04:57.285Z,44.40
2019-01-25T00:08:02.564Z,36.43
2019-01-25T00:11:08.258Z,34.97
2019-01-25T00:14:13.485Z,34.87
2019-01-25T00:17:18.309Z,38.47
2019-01-25T00:20:23.302Z,40.43
2019-01-25T00:23:28.266Z,38.57
2019-01-25T00:26:33.444Z,40.10
2019-01-25T00:29:38.262Z,34.47
2019-01-25T00:32:43.330Z,38.40
2019-01-25T00:35:48.387Z,44.47
2019-01-25T00:38:53.341Z,36.47
2019-01-25T00:41:58.347Z,37.93
2019-01-25T00:45:03.392Z,40.20
2019-01-25T00:48:08.472Z,39.83
2019-01-25T00:51:13.725Z,36.97
2019-01-25T00:54:18.557Z,38.67
2019-01-25T00:57:23.653Z,38.30
2019-01-25T01:00:29.224Z,53.73
2019-01-25T01:03:34.444Z,41.53
2019-01-25T01:06:39.782Z,44.73
2019-01-25T01:09:44.709Z,42.10
2019-01-25T01:12:50.002Z,40.50
2019-01-25T01:15:55.071Z,40.13
2019-01-25T01:19:00.036Z,38.60
2019-01-25T01:22:05.324Z,40.73
2019-01-25T01:25:11.016Z,45.67
2019-01-25T01:28:15.962Z,49.83
2019-01-25T01:31:21.053Z,41.43
2019-01-25T01:34:26.134Z,39.57
2019-01-25T01:37:31.050Z,32.40
2019-01-25T01:40:36.835Z,36.70
2019-01-25T01:43:41.901Z,36.00
2019-01-25T01:46:46.637Z,41.30
2019-01-25T01:49:51.357Z,36.63
2019-01-25T01:52:56.058Z,34.90
2019-01-25T01:56:01.314Z,35.03
2019-01-25T01:59:06.405Z,39.17
2019-01-25T02:02:11.581Z,38.80
2019-01-25T02:05:17.417Z,36.77
2019-01-25T02:08:22.485Z,36.70
2019-01-25T02:11:27.603Z,35.13
2019-01-25T02:14:32.651Z,44.17
2019-01-25T02:17:37.916Z,39.97
2019-01-25T02:20:43.044Z,31.10
2019-01-25T02:23:47.993Z,40.33
2019-01-25T02:26:53.102Z,39.50
2019-01-25T02:29:58.090Z,38.87
2019-01-25T02:33:03.302Z,39.13
2019-01-25T02:36:08.470Z,41.20
2019-01-25T02:39:13.653Z,38.77
2019-01-25T02:42:18.571Z,34.63
2019-01-25T02:45:23.584Z,34.20
2019-01-25T02:48:28.913Z,32.63
2019-01-25T02:51:33.827Z,37.17
2019-01-25T02:54:41.769Z,45.17
2019-01-25T02:57:46.805Z,36.07
2019-01-25T03:00:51.649Z,36.00
2019-01-25T03:03:56.598Z,37.60
2019-01-25T03:07:01.690Z,33.20
2019-01-25T03:10:09.119Z,36.33
2019-01-25T03:13:14.115Z,40.93
2019-01-25T03:16:19.217Z,37.93
2019-01-25T03:19:24.204Z,36.93
2019-01-25T03:22:29.363Z,33.53
2019-01-25T03:25:34.423Z,33.07
2019-01-25T03:28:39.646Z,35.30
2019-01-25T03:31:44.662Z,36.83
2019-01-25T03:34:49.735Z,42.67
2019-01-25T03:37:54.827Z,36.83
2019-01-25T03:40:59.995Z,35.60
2019-01-25T03:44:05.352Z,32.47
2019-01-25T03:47:10.493Z,34.67
2019-01-25T03:50:18.398Z,31.23
2019-01-25T03:53:23.338Z,30.40
2019-01-25T03:56:28.319Z,33.10
2019-01-25T03:59:33.288Z,34.57
2019-01-25T04:02:38.159Z,34.00
2019-01-25T04:05:43.072Z,33.57
2019-01-25T04:08:48.229Z,33.70
2019-01-25T04:11:53.428Z,36.53
2019-01-25T04:14:58.395Z,32.93
2019-01-25T04:18:03.336Z,33.77
2019-01-25T04:21:08.688Z,38.90
2019-01-25T04:24:13.789Z,34.53
2019-01-25T04:27:18.766Z,31.70
2019-01-25T04:30:25.762Z,32.70
2019-01-25T04:33:30.853Z,33.80
2019-01-25T04:36:35.848Z,40.67
2019-01-25T04:39:40.939Z,38.57
2019-01-25T04:42:46.219Z,33.83
2019-01-25T04:45:52.245Z,34.77
2019-01-25T04:48:57.643Z,39.07
2019-01-25T04:52:02.777Z,37.97
2019-01-25T04:55:19.883Z,37.13
2019-01-25T04:58:25.156Z,39.07
2019-01-25T05:01:30.209Z,33.87
2019-01-25T05:04:37.417Z,39.30
2019-01-25T05:07:42.401Z,32.37
2019-01-25T05:10:47.714Z,37.00
2019-01-25T05:13:52.697Z,31.83
2019-01-25T05:16:57.570Z,33.03
2019-01-25T05:20:02.778Z,29.67
2019-01-25T05:23:09.101Z,62.60
2019-01-25T05:26:14.286Z,39.27
2019-01-25T05:29:22.658Z,45.27
2019-01-25T05:32:27.655Z,39.13
2019-01-25T05:35:36.688Z,34.43
2019-01-25T05:38:46.751Z,38.47
2019-01-25T05:41:54.071Z,36.80
2019-01-25T05:44:58.956Z,35.47
2019-01-25T05:48:04.083Z,38.60
2019-01-25T05:51:09.454Z,40.63
2019-01-25T05:54:14.690Z,42.40
2019-01-25T05:57:19.522Z,35.47
2019-01-25T06:00:28.889Z,37.50
2019-01-25T06:03:33.769Z,40.03
2019-01-25T06:06:38.640Z,34.77
2019-01-25T06:09:43.540Z,36.77
2019-01-25T06:12:53.326Z,31.63
2019-01-25T06:15:58.346Z,43.67
2019-01-25T06:19:03.473Z,38.60
2019-01-25T06:22:08.408Z,38.40
2019-01-25T06:25:13.674Z,48.03
2019-01-25T06:28:18.501Z,46.20
2019-01-25T06:31:23.506Z,38.57
2019-01-25T06:34:28.540Z,43.83
2019-01-25T06:37:34.031Z,45.27
2019-01-25T06:40:38.857Z,43.40
2019-01-25T06:43:43.930Z,49.07
2019-01-25T06:46:48.839Z,61.10
2019-01-25T06:49:53.811Z,51.47
2019-01-25T06:53:00.324Z,52.73
2019-01-25T06:56:06.856Z,47.83
2019-01-25T06:59:24.076Z,47.70
2019-01-25T07:02:33.831Z,59.37
2019-01-25T07:05:38.964Z,49.50
2019-01-25T07:08:43.858Z,61.87
2019-01-25T07:11:51.663Z,52.70
2019-01-25T07:14:55.786Z,50.80
2019-01-25T07:18:00.735Z,60.90
2019-01-25T07:21:05.999Z,66.80
2019-01-25T07:24:11.776Z,54.10
2019-01-25T07:27:16.773Z,56.90
2019-01-25T07:30:21.697Z,66.40
2019-01-25T07:33:26.564Z,65.03
2019-01-25T07:36:31.661Z,64.93
2019-01-25T07:39:36.840Z,69.23
2019-01-25T07:42:41.845Z,64.90
2019-01-25T07:45:47.722Z,73.73
2019-01-25T07:48:52.549Z,65.40
2019-01-25T07:51:57.597Z,61.50
2019-01-25T07:55:02.821Z,66.50
2019-01-25T07:58:07.882Z,59.40
2019-01-25T08:01:13.142Z,56.27
2019-01-25T08:04:18.084Z,61.80
2019-01-25T08:07:22.989Z,63.47
2019-01-25T08:10:27.963Z,65.93
2019-01-25T08:13:32.920Z,74.30
2019-01-25T08:16:37.834Z,56.37
2019-01-25T08:19:42.749Z,57.33
2019-01-25T08:22:47.832Z,60.87
2019-01-25T08:25:52.886Z,58.20
2019-01-25T08:28:57.849Z,59.33
2019-01-25T08:32:02.894Z,61.53
2019-01-25T08:35:09.753Z,58.70
2019-01-25T08:38:14.691Z,63.57
2019-01-25T08:41:19.591Z,63.10
2019-01-25T08:44:24.705Z,66.47
2019-01-25T08:47:29.790Z,70.00
2019-01-25T08:50:35.283Z,71.07
2019-01-25T08:53:41.486Z,58.73
2019-01-25T08:56:46.779Z,56.47
2019-01-25T08:59:51.775Z,62.07
2019-01-25T09:02:57.057Z,59.60
2019-01-25T09:06:02.178Z,63.30
2019-01-25T09:09:10.499Z,63.73
2019-01-25T09:12:23.060Z,57.70
2019-01-25T09:15:24.755Z,57.33
2019-01-25T09:18:29.941Z,78.50
2019-01-25T09:21:34.869Z,65.30
2019-01-25T09:24:40.036Z,67.57
2019-01-25T09:27:44.925Z,63.87
2019-01-25T09:30:50.036Z,65.33
2019-01-25T09:33:54.938Z,71.40
2019-01-25T09:36:59.912Z,66.73
2019-01-25T09:40:06.293Z,66.73
2019-01-25T09:43:11.308Z,66.80
2019-01-25T09:46:16.117Z,68.63
2019-01-25T09:49:21.103Z,67.27
2019-01-25T09:52:26.083Z,60.53
2019-01-25T09:55:31.249Z,61.60
2019-01-25T09:58:38.551Z,66.93
2019-01-25T10:01:43.636Z,61.67
2019-01-25T10:04:48.622Z,81.70
2019-01-25T10:07:53.580Z,70.30
2019-01-25T10:11:00.848Z,73.70
2019-01-25T10:14:05.786Z,76.17
2019-01-25T10:17:10.633Z,70.47
2019-01-25T10:20:15.815Z,78.93
2019-01-25T10:23:21.097Z,72.60
2019-01-25T10:26:26.194Z,74.27
2019-01-25T10:29:31.376Z,67.00
2019-01-25T10:32:36.365Z,63.87
2019-01-25T10:35:41.633Z,53.77
2019-01-25T10:38:46.651Z,58.30
2019-01-25T10:41:51.716Z,64.03
2019-01-25T10:44:56.982Z,58.07
2019-01-25T10:48:01.952Z,57.20
2019-01-25T10:51:07.495Z,61.10
2019-01-25T10:54:12.512Z,55.70
2019-01-25T10:57:17.476Z,58.80
2019-01-25T11:00:22.937Z,66.87
2019-01-25T11:03:29.873Z,64.00
2019-01-25T11:06:36.390Z,59.73
2019-01-25T11:09:41.432Z,50.90
2019-01-25T11:12:46.420Z,55.00
2019-01-25T11:15:51.518Z,53.03
2019-01-25T11:18:56.793Z,50.93
2019-01-25T11:22:01.746Z,53.30
2019-01-25T11:25:08.648Z,60.87
2019-01-25T11:28:13.590Z,54.60
2019-01-25T11:31:18.582Z,53.97
2019-01-25T11:34:23.854Z,52.83
2019-01-25T11:37:28.923Z,55.57
2019-01-25T11:40:36.649Z,54.17
2019-01-25T11:43:41.630Z,51.90
2019-01-25T11:46:47.212Z,46.93
2019-01-25T11:49:52.152Z,52.93
2019-01-25T11:52:57.399Z,48.80
2019-01-25T11:56:02.291Z,44.50
2019-01-25T11:59:07.436Z,49.40
2019-01-25T12:02:12.333Z,54.40
2019-01-25T12:05:18.429Z,58.93
2019-01-25T12:08:23.451Z,57.37
2019-01-25T12:11:28.587Z,56.63
2019-01-25T12:14:33.720Z,52.20
2019-01-25T12:17:38.927Z,54.17
2019-01-25T12:20:43.783Z,51.50
2019-01-25T12:23:48.914Z,53.07
2019-01-25T12:26:54.097Z,52.50
2019-01-25T12:29:59.133Z,58.30
2019-01-25T12:33:07.385Z,50.90
2019-01-25T12:36:12.551Z,50.30
2019-01-25T12:39:17.458Z,52.30
2019-01-25T12:42:22.629Z,54.83
2019-01-25T12:45:28.533Z,53.67
2019-01-25T12:48:33.983Z,58.70
2019-01-25T12:51:51.937Z,57.10
2019-01-25T12:54:57.037Z,51.50
2019-01-25T12:58:02.124Z,49.03
2019-01-25T13:01:07.490Z,52.57
2019-01-25T13:04:12.608Z,49.47
2019-01-25T13:07:17.657Z,48.13
2019-01-25T13:10:23.033Z,49.67
2019-01-25T13:13:31.686Z,53.20
2019-01-25T13:16:34.520Z,46.80
2019-01-25T13:19:39.553Z,55.93
2019-01-25T13:22:44.504Z,48.47
2019-01-25T13:25:49.596Z,50.93
2019-01-25T13:28:54.615Z,51.07
2019-01-25T13:31:59.677Z,44.77
2019-01-25T13:35:05.868Z,48.75
2019-01-25T13:38:10.556Z,52.70
2019-01-25T13:41:15.389Z,48.73
2019-01-25T13:44:20.313Z,43.87
2019-01-25T13:47:25.436Z,41.93
2019-01-25T13:50:30.878Z,45.40
2019-01-25T13:53:36.239Z,45.43
2019-01-25T13:56:41.266Z,42.60
2019-01-25T13:59:46.399Z,41.53
2019-01-25T14:02:51.446Z,43.33
2019-01-25T14:05:56.881Z,45.73
2019-01-25T14:09:01.908Z,45.83
2019-01-25T14:12:09.345Z,46.43
2019-01-25T14:15:14.668Z,38.03
2019-01-25T14:18:19.658Z,18.27
2019-01-25T14:21:24.747Z,17.90
2019-01-25T14:24:29.685Z,16.83
2019-01-25T14:27:34.896Z,15.70
2019-01-25T14:30:42.465Z,14.37
2019-01-25T14:33:47.594Z,16.90
2019-01-25T14:36:52.385Z,14.93
2019-01-25T14:39:57.156Z,17.20
2019-01-25T14:43:02.006Z,13.43
2019-01-25T14:46:06.950Z,18.90
2019-01-25T14:49:11.963Z,15.47
2019-01-25T14:52:17.202Z,15.30
2019-01-25T14:55:22.542Z,14.63
2019-01-25T14:58:27.609Z,17.33
2019-01-25T15:01:32.628Z,18.90
2019-01-25T15:04:37.859Z,12.63
2019-01-25T15:07:42.784Z,18.13
2019-01-25T15:10:47.944Z,16.00
2019-01-25T15:13:52.960Z,15.27
2019-01-25T15:16:57.953Z,17.93
2019-01-25T15:20:03.030Z,15.40
2019-01-25T15:23:08.411Z,16.63
2019-01-25T15:26:13.468Z,14.20
2019-01-25T15:29:18.592Z,16.60
2019-01-25T15:32:23.626Z,26.27
2019-01-25T15:35:29.016Z,35.40
2019-01-25T15:38:33.987Z,47.23
2019-01-25T15:41:38.985Z,50.70
2019-01-25T15:44:43.773Z,47.27
2019-01-25T15:47:49.248Z,54.97
2019-01-25T15:50:54.189Z,51.70
2019-01-25T15:53:59.568Z,56.00
2019-01-25T15:57:04.609Z,51.20
2019-01-25T16:00:13.944Z,49.20
2019-01-25T16:03:19.163Z,50.50
2019-01-25T16:06:24.153Z,56.03
2019-01-25T16:09:29.266Z,50.90
2019-01-25T16:12:34.644Z,51.30
2019-01-25T16:15:39.650Z,47.43
2019-01-25T16:18:44.786Z,60.87
2019-01-25T16:21:49.928Z,59.97
2019-01-25T16:24:54.927Z,47.30
2019-01-25T16:28:04.170Z,59.53
2019-01-25T16:31:09.300Z,56.53
2019-01-25T16:34:14.351Z,53.80
2019-01-25T16:37:19.301Z,48.73
2019-01-25T16:40:24.628Z,59.13
2019-01-25T16:43:29.813Z,52.77
2019-01-25T16:46:34.845Z,64.73
2019-01-25T16:49:39.821Z,57.80
2019-01-25T16:52:44.918Z,47.17
2019-01-25T16:55:50.160Z,50.47
2019-01-25T16:58:55.069Z,59.20
2019-01-25T17:01:59.957Z,52.67
2019-01-25T17:05:08.201Z,54.60
2019-01-25T17:08:13.401Z,58.73
2019-01-25T17:11:18.406Z,56.60
2019-01-25T17:14:23.549Z,51.13
2019-01-25T17:17:29.002Z,49.70
2019-01-25T17:20:34.009Z,42.80
2019-01-25T17:23:39.071Z,47.40
2019-01-25T17:26:44.038Z,53.70
2019-01-25T17:29:49.117Z,48.03
2019-01-25T17:32:54.547Z,46.37
2019-01-25T17:35:59.575Z,28.17
2019-01-25T17:39:06.852Z,56.03
2019-01-25T17:42:11.937Z,44.77
2019-01-25T17:45:17.448Z,23.53
2019-01-25T17:48:22.582Z,17.00
2019-01-25T17:51:27.708Z,22.13
2019-01-25T17:54:32.917Z,19.70
2019-01-25T17:57:38.630Z,18.80
2019-01-25T18:00:54.273Z,20.70
2019-01-25T18:03:59.665Z,19.20
2019-01-25T18:07:04.816Z,16.47
2019-01-25T18:10:12.856Z,19.30
2019-01-25T18:13:17.827Z,15.90
2019-01-25T18:16:22.980Z,17.40
2019-01-25T18:19:27.952Z,20.67
2019-01-25T18:22:33.271Z,17.77
2019-01-25T18:26:02.012Z,20.07
2019-01-25T18:29:10.462Z,16.10
2019-01-25T18:32:15.322Z,16.57
2019-01-25T18:35:21.117Z,15.10
2019-01-25T18:38:26.245Z,15.57
2019-01-25T18:41:31.526Z,15.10
2019-01-25T18:44:36.630Z,20.17
2019-01-25T18:47:44.903Z,21.87
2019-01-25T18:50:50.023Z,18.30
2019-01-25T18:53:55.354Z,18.53
2019-01-25T18:57:00.388Z,18.33
2019-01-25T19:00:06.694Z,13.23
2019-01-25T19:03:11.808Z,17.80
2019-01-25T19:06:16.852Z,18.20
2019-01-25T19:09:21.813Z,16.30
2019-01-25T19:12:26.951Z,19.70
2019-01-25T19:15:32.337Z,17.97
2019-01-25T19:18:37.458Z,14.90
2019-01-25T19:21:42.360Z,19.90
2019-01-25T19:24:47.333Z,18.50
2019-01-25T19:27:52.332Z,17.60
2019-01-25T19:31:00.461Z,19.23
2019-01-25T19:34:06.298Z,21.93
2019-01-25T19:37:11.421Z,16.20
2019-01-25T19:40:17.343Z,16.20
2019-01-25T19:43:22.462Z,17.00
2019-01-25T19:46:27.475Z,18.00
2019-01-25T19:49:32.599Z,18.43
2019-01-25T19:52:37.705Z,15.23
2019-01-25T19:55:42.696Z,16.70
2019-01-25T19:58:47.745Z,15.07
2019-01-25T20:01:52.812Z,20.20
2019-01-25T20:04:57.921Z,13.93
2019-01-25T20:08:03.215Z,16.70
2019-01-25T20:11:08.193Z,16.23
2019-01-25T20:14:13.244Z,17.50
2019-01-25T20:17:18.496Z,11.83
2019-01-25T20:20:25.652Z,12.83
2019-01-25T20:23:30.945Z,11.60
2019-01-25T20:26:38.720Z,15.03
2019-01-25T20:29:43.889Z,11.83
2019-01-25T20:32:48.936Z,15.60
2019-01-25T20:35:54.022Z,12.50
2019-01-25T20:38:59.066Z,13.67
2019-01-25T20:42:04.237Z,13.17
2019-01-25T20:45:12.391Z,12.87
2019-01-25T20:48:17.593Z,12.80
2019-01-25T20:51:23.051Z,17.93
2019-01-25T20:54:28.092Z,12.10
2019-01-25T20:57:33.241Z,15.30
2019-01-25T21:00:39.328Z,15.30
2019-01-25T21:03:44.445Z,14.90
2019-01-25T21:06:49.489Z,14.97
2019-01-25T21:09:54.610Z,12.80
2019-01-25T21:12:59.941Z,12.70
2019-01-25T21:16:05.063Z,16.73
2019-01-25T21:19:09.958Z,19.13
2019-01-25T21:22:14.954Z,21.00
2019-01-25T21:25:20.157Z,11.10
2019-01-25T21:28:25.491Z,14.13
2019-01-25T21:31:30.762Z,20.10
2019-01-25T21:34:35.676Z,25.43
2019-01-25T21:37:40.645Z,23.47
2019-01-25T21:40:45.682Z,19.00
2019-01-25T21:43:50.463Z,36.23
2019-01-25T21:46:55.510Z,30.63
2019-01-25T21:50:00.631Z,30.30
2019-01-25T21:53:06.236Z,32.10
2019-01-25T21:56:11.356Z,24.63
2019-01-25T21:59:16.381Z,31.60
2019-01-25T22:02:21.460Z,30.07
2019-01-25T22:05:26.958Z,28.37
2019-01-25T22:08:31.933Z,22.47
2019-01-25T22:11:36.778Z,27.90
2019-01-25T22:14:42.025Z,28.27
2019-01-25T22:17:47.496Z,31.13
2019-01-25T22:20:52.400Z,23.77
2019-01-25T22:23:57.432Z,23.33
2019-01-25T22:27:02.404Z,24.57
2019-01-25T22:30:09.921Z,20.97
2019-01-25T22:33:14.862Z,25.17
2019-01-25T22:36:19.861Z,21.87
2019-01-25T22:39:24.790Z,26.27
2019-01-25T22:42:29.707Z,22.30
2019-01-25T22:45:34.585Z,32.40
2019-01-25T22:48:39.648Z,19.70
2019-01-25T22:51:44.931Z,20.27
2019-01-25T22:54:49.977Z,29.57
2019-01-25T22:57:55.250Z,31.07
2019-01-25T23:01:14.313Z,21.30
2019-01-25T23:04:53.856Z,20.80
2019-01-25T23:07:58.669Z,20.83
2019-01-25T23:11:04.033Z,16.43
2019-01-25T23:14:09.936Z,12.55
2019-01-25T23:17:15.137Z,18.70
2019-01-25T23:20:20.614Z,12.20
2019-01-25T23:23:28.078Z,13.70
2019-01-25T23:26:33.209Z,10.30
2019-01-25T23:29:38.865Z,8.93
2019-01-25T23:32:43.976Z,9.77
2019-01-25T23:35:49.087Z,9.97
2019-01-25T23:38:55.497Z,12.57
2019-01-25T23:42:05.300Z,12.43
2019-01-25T23:45:11.941Z,9.60
2019-01-25T23:48:16.965Z,10.10
2019-01-25T23:51:23.067Z,12.47
2019-01-25T23:54:28.136Z,8.50
2019-01-25T23:57:33.062Z,15.83
